Time;durP1;ratioP1;P1;durP2;ratioP2;P2;SDS_P1;SDS_P2;PMS_P1;PMS_P2;Temp;Humidity;BMP_temperature;BMP_pressure;BME280_temperature;BME280_humidity;BME280_pressure;Samples;Min_cycle;Max_cycle;Signal;HPM_P1;HPM_P2
2021/08/13 00:01:21;;;;;;;0.68;0.68;;;;;;;17.43;89.85;101319.41;5040986;28;20045;-84
2021/08/13 00:03:53;;;;;;;0.90;0.60;;;;;;;17.37;89.64;101323.38;5037913;28;20443;-84
2021/08/13 00:06:26;;;;;;;;;;;;;;;17.36;90.18;101319.81;5042528;28;20060;-84
2021/08/13 00:08:55;;;;;;;0.60;0.60;;;;;;;17.33;90.41;101325.91;5042117;28;19920;-84
2021/08/13 00:11:28;;;;;;;0.57;0.57;;;;;;;17.29;90.13;101324.91;5041894;28;20061;-84
2021/08/13 00:14:02;;;;;;;0.68;0.68;;;;;;;17.24;90.88;101328.59;5033440;28;20053;-84
2021/08/13 00:16:36;;;;;;;0.60;0.60;;;;;;;17.17;90.68;101329.03;5039928;28;20414;-84
2021/08/13 00:19:05;;;;;;;0.70;0.70;;;;;;;17.14;90.49;101321.38;5040388;28;20053;-85
2021/08/13 00:21:38;;;;;;;0.60;0.60;;;;;;;17.09;91.71;101324.25;5045470;28;20064;-84
2021/08/13 00:24:11;;;;;;;0.68;0.60;;;;;;;17.05;91.11;101319.69;5039151;28;20100;-84
2021/08/13 00:26:45;;;;;;;0.70;0.70;;;;;;;17.05;91.67;101319.69;5042718;28;20049;-84
2021/08/13 00:29:19;;;;;;;0.70;0.70;;;;;;;17.02;91.00;101326.59;5047902;28;20474;-84
2021/08/13 00:31:53;;;;;;;0.70;0.60;;;;;;;16.99;91.00;101322.53;5045152;28;20045;-84
2021/08/13 00:34:26;;;;;;;0.70;0.70;;;;;;;16.99;91.00;101319.78;5061491;28;20053;-84
2021/08/13 00:37:00;;;;;;;0.60;0.60;;;;;;;16.97;91.96;101310.22;5044791;28;20494;-84
2021/08/13 00:39:33;;;;;;;0.50;0.50;;;;;;;16.91;91.29;101300.47;5050890;28;20057;-84
2021/08/13 00:42:07;;;;;;;0.60;0.60;;;;;;;16.97;91.27;101318.47;5045385;28;20049;-84
2021/08/13 00:44:44;;;;;;;1.27;0.80;;;;;;;16.96;91.60;101311.34;5056947;28;20041;-84
2021/08/13 00:47:19;;;;;;;0.60;0.60;;;;;;;16.99;91.12;101313.47;5046038;28;20045;-84
2021/08/13 00:50:09;;;;;;;0.60;0.60;;;;;;;17.00;90.91;101315.91;5042823;28;20441;-84
2021/08/13 00:52:46;;;;;;;0.63;0.60;;;;;;;16.99;92.08;101311.53;5040770;28;20045;-83
2021/08/13 00:55:19;;;;;;;1.00;0.80;;;;;;;16.97;92.86;101315.72;5046297;28;20072;-84
2021/08/13 00:58:02;;;;;;;0.80;0.80;;;;;;;16.96;91.74;101303.09;5039371;28;20049;-84
2021/08/13 01:01:10;;;;;;;0.70;0.70;;;;;;;16.95;92.70;101309.72;5001732;28;20053;-83
2021/08/13 01:03:45;;;;;;;0.85;0.85;;;;;;;16.97;92.61;101313.78;5046377;28;20060;-84
2021/08/13 01:06:18;;;;;;;0.82;0.65;;;;;;;17.01;92.24;101311.22;5047460;28;20057;-84
2021/08/13 01:08:54;;;;;;;0.88;0.88;;;;;;;17.00;92.44;101315.91;5048267;28;20049;-84
2021/08/13 01:11:41;;;;;;;0.80;0.80;;;;;;;16.90;92.92;101310.63;5046091;28;20049;-85
2021/08/13 01:14:21;;;;;;;0.70;0.70;;;;;;;16.98;92.21;101309.09;5045218;28;20061;-84
2021/08/13 01:17:00;;;;;;;0.80;0.80;;;;;;;16.97;92.58;101313.78;5044516;28;20045;-84
2021/08/13 01:19:48;;;;;;;0.70;0.70;;;;;;;17.01;92.30;101316.72;5054434;28;20037;-84
2021/08/13 01:22:25;;;;;;;1.02;0.70;;;;;;;16.97;93.02;101316.53;5049221;28;20053;-84
2021/08/13 01:25:02;;;;;;;0.98;0.85;;;;;;;16.99;92.78;101325.28;5051746;28;20057;-84
2021/08/13 01:27:35;;;;;;;0.70;0.70;;;;;;;16.99;93.44;101327.22;5056377;28;20049;-83
2021/08/13 01:30:12;;;;;;;0.70;0.70;;;;;;;16.98;93.22;101331.09;5046962;28;20060;-84
2021/08/13 01:33:03;;;;;;;0.95;0.80;;;;;;;16.98;93.84;101329.16;5047100;28;20124;-84
2021/08/13 01:35:39;;;;;;;0.77;0.77;;;;;;;16.99;93.91;101333.53;5044797;28;20394;-84
2021/08/13 01:38:19;;;;;;;0.70;0.70;;;;;;;16.99;93.80;101336.28;5045453;28;20060;-84
2021/08/13 01:41:00;;;;;;;0.82;0.70;;;;;;;17.02;93.21;101320.31;5047266;28;20049;-84
2021/08/13 01:43:41;;;;;;;1.05;0.90;;;;;;;17.07;92.82;101334.75;5051791;28;20390;-84
2021/08/13 01:46:19;;;;;;;0.90;0.90;;;;;;;17.07;93.29;101336.66;5051236;28;20048;-83
2021/08/13 01:49:01;;;;;;;0.90;0.90;;;;;;;17.03;93.83;101331.00;5045844;28;20060;-84
2021/08/13 01:51:37;;;;;;;1.42;0.95;;;;;;;17.04;93.57;101326.28;5051887;28;20049;-84
2021/08/13 01:54:11;;;;;;;1.17;1.00;;;;;;;16.99;94.25;101333.53;5052434;28;20509;-84
2021/08/13 01:56:46;;;;;;;0.88;0.88;;;;;;;16.95;94.40;101328.97;5044968;28;20469;-84
2021/08/13 01:59:16;;;;;;;0.80;0.80;;;;;;;16.97;94.55;101332.22;5053578;28;20048;-84
2021/08/13 02:01:52;;;;;;;1.00;0.82;;;;;;;16.94;93.29;101321.81;5051903;28;20053;-83
2021/08/13 02:04:23;;;;;;;0.80;0.80;;;;;;;16.96;94.00;101317.66;5064456;28;20053;-84
2021/08/13 02:06:59;;;;;;;0.70;0.70;;;;;;;17.03;93.10;101322.75;5039003;28;20401;-84
2021/08/13 02:09:27;;;;;;;1.33;0.90;;;;;;;17.03;93.46;101328.25;5046076;28;20351;-84
2021/08/13 02:12:01;;;;;;;0.82;0.82;;;;;;;16.97;93.40;101330.28;5052479;28;20057;-84
2021/08/13 02:14:35;;;;;;;0.80;0.80;;;;;;;17.00;93.18;101329.66;5048896;28;20052;-84
2021/08/13 02:17:17;;;;;;;0.80;0.80;;;;;;;17.02;92.80;101329.34;5051884;28;20049;-83
2021/08/13 02:19:58;;;;;;;1.08;0.98;;;;;;;17.04;93.40;101332.63;5051965;28;20413;-84
2021/08/13 02:22:27;;;;;;;;;;;;;;;17.05;92.78;101323.22;5052857;28;20049;-83
2021/08/13 02:25:01;;;;;;;0.80;0.80;;;;;;;17.01;92.86;101322.22;5052589;28;19931;-84
2021/08/13 02:27:35;;;;;;;0.88;0.88;;;;;;;17.03;92.59;101335.66;5039600;28;20037;-84
2021/08/13 02:30:11;;;;;;;0.80;0.80;;;;;;;17.08;92.28;101336.38;5049860;28;20048;-84
2021/08/13 02:32:48;;;;;;;0.70;0.70;;;;;;;17.10;91.20;101328.63;5065626;28;20375;-84
2021/08/13 02:35:24;;;;;;;0.80;0.80;;;;;;;17.12;91.57;101320.91;5063376;28;20052;-84
2021/08/13 02:38:03;;;;;;;1.00;0.90;;;;;;;17.16;91.44;101321.88;5050590;28;20052;-84
2021/08/13 02:40:45;;;;;;;0.70;0.70;;;;;;;17.17;90.99;101322.72;5051587;28;20045;-85
2021/08/13 02:43:23;;;;;;;0.70;0.70;;;;;;;17.11;91.53;101313.75;5046944;28;20052;-84
2021/08/13 02:45:55;;;;;;;0.70;0.70;;;;;;;17.15;91.30;101317.53;5048024;28;20429;-84
2021/08/13 02:48:34;;;;;;;0.82;0.68;;;;;;;17.14;92.19;101315.09;5047659;28;20037;-85
2021/08/13 02:51:11;;;;;;;0.75;0.75;;;;;;;17.14;92.15;101312.34;5051880;28;20049;-84
2021/08/13 02:53:49;;;;;;;0.60;0.60;;;;;;;17.12;92.16;101309.06;5050309;28;20049;-84
2021/08/13 02:56:28;;;;;;;0.63;0.60;;;;;;;17.07;91.70;101312.75;5063698;28;20041;-84
2021/08/13 02:59:00;;;;;;;0.60;0.60;;;;;;;17.07;92.02;101318.25;5045435;28;20049;-84
2021/08/13 03:01:35;;;;;;;0.60;0.60;;;;;;;17.09;91.67;101324.25;5051197;28;20052;-84
2021/08/13 03:04:11;;;;;;;0.57;0.57;;;;;;;17.03;93.08;101311.75;5052008;28;20048;-83
2021/08/13 03:06:46;;;;;;;0.60;0.60;;;;;;;16.96;93.15;101297.59;5051155;28;20551;-84
2021/08/13 03:09:21;;;;;;;0.60;0.60;;;;;;;16.97;92.91;101296.47;5050840;28;20049;-84
2021/08/13 03:11:57;;;;;;;0.60;0.60;;;;;;;17.01;92.79;101300.22;5047223;28;20546;-83
2021/08/13 03:14:31;;;;;;;0.68;0.68;;;;;;;17.02;92.95;101312.06;5050832;28;20045;-84
2021/08/13 03:17:07;;;;;;;0.50;0.50;;;;;;;16.97;92.75;101308.28;5051183;28;20045;-84
2021/08/13 03:19:41;;;;;;;0.60;0.60;;;;;;;16.97;92.80;101302.78;5050428;28;20052;-83
2021/08/13 03:22:19;;;;;;;0.50;0.50;;;;;;;16.94;93.22;101308.09;5050870;28;20076;-83
2021/08/13 03:24:54;;;;;;;0.60;0.60;;;;;;;16.91;93.93;101300.47;5046316;28;20064;-83
2021/08/13 03:27:24;;;;;;;0.60;0.60;;;;;;;16.90;93.27;101298.81;5049464;28;20234;-84
2021/08/13 03:29:57;;;;;;;0.60;0.60;;;;;;;16.84;93.42;101300.84;5044574;28;20041;-84
2021/08/13 03:32:34;;;;;;;0.50;0.50;;;;;;;16.84;93.30;101301.63;5043240;28;20115;-84
2021/08/13 03:35:09;;;;;;;0.57;0.57;;;;;;;16.79;93.48;101300.94;5045754;28;20045;-83
2021/08/13 03:37:44;;;;;;;0.60;0.60;;;;;;;16.79;93.20;101301.78;5049873;28;20056;-84
2021/08/13 03:40:17;;;;;;;0.60;0.60;;;;;;;16.71;93.42;101299.75;5047435;28;20041;-84
2021/08/13 03:42:53;;;;;;;0.93;0.50;;;;;;;16.71;93.49;101297.00;5046573;28;20072;-84
2021/08/13 03:45:28;;;;;;;0.60;0.60;;;;;;;16.67;93.50;101304.22;5050505;28;20068;-84
2021/08/13 03:48:03;;;;;;;0.80;0.70;;;;;;;16.60;94.39;101301.88;5049763;28;20057;-84
2021/08/13 03:50:36;;;;;;;0.60;0.60;;;;;;;16.67;93.88;101302.28;5043306;28;20056;-83
2021/08/13 03:53:06;;;;;;;0.55;0.55;;;;;;;16.50;93.74;101288.31;5040494;28;20053;-83
2021/08/13 03:55:43;;;;;;;;;;;;;;;16.42;94.72;101303.59;5050869;28;20485;-84
2021/08/13 03:58:18;;;;;;;0.60;0.60;;;;;;;16.30;94.05;101282.13;5043722;28;20380;-83
2021/08/13 04:00:53;;;;;;;0.85;0.70;;;;;;;16.33;94.56;101306.22;5050376;28;20048;-84
2021/08/13 04:03:29;;;;;;;0.60;0.60;;;;;;;16.26;95.14;101305.81;5043347;28;20056;-84
2021/08/13 04:06:02;;;;;;;1.20;0.70;;;;;;;16.22;95.21;101307.53;5045184;28;20399;-84
2021/08/13 04:08:39;;;;;;;0.70;0.70;;;;;;;16.25;94.00;101314.34;5038324;28;20044;-83
2021/08/13 04:11:13;;;;;;;1.25;0.80;;;;;;;16.29;94.31;101315.38;5045420;28;20526;-84
2021/08/13 04:13:50;;;;;;;0.82;0.82;;;;;;;16.33;94.28;101311.72;5045570;28;20057;-83
2021/08/13 04:16:28;;;;;;;1.10;0.90;;;;;;;16.37;94.28;101320.16;5054422;28;20056;-83
2021/08/13 04:18:58;;;;;;;1.67;0.90;;;;;;;16.44;94.17;101315.09;5050323;28;20375;-84
2021/08/13 04:21:35;;;;;;;0.90;0.90;;;;;;;16.36;95.01;101317.72;5046412;28;20063;-83
2021/08/13 04:24:10;;;;;;;0.88;0.88;;;;;;;16.39;94.76;101319.88;5038213;28;20045;-83
2021/08/13 04:26:43;;;;;;;1.05;0.95;;;;;;;16.39;94.30;101320.69;5038432;28;20049;-84
2021/08/13 04:29:17;;;;;;;1.17;0.90;;;;;;;16.42;94.52;101320.09;5043165;28;20045;-83
2021/08/13 04:31:52;;;;;;;0.98;0.98;;;;;;;16.35;95.26;101316.09;5048182;28;20049;-84
2021/08/13 04:34:25;;;;;;;0.80;0.80;;;;;;;16.31;95.19;101327.69;5037631;28;20067;-84
2021/08/13 04:36:58;;;;;;;1.33;1.00;;;;;;;16.37;94.61;101331.16;5047017;28;20050;-84
2021/08/13 04:39:35;;;;;;;0.90;0.80;;;;;;;16.36;94.85;101329.53;5038011;28;21739;-84
2021/08/13 04:42:09;;;;;;;1.00;0.90;;;;;;;16.33;94.94;101319.94;5049084;28;20052;-84
2021/08/13 04:44:42;;;;;;;0.88;0.80;;;;;;;16.42;94.80;101336.56;5049755;28;20048;-84
2021/08/13 04:47:15;;;;;;;0.80;0.80;;;;;;;16.39;95.64;101328.09;5047974;28;20057;-84
2021/08/13 04:49:49;;;;;;;0.82;0.82;;;;;;;16.39;95.61;101330.84;5046643;28;20045;-84
2021/08/13 04:52:20;;;;;;;1.13;1.00;;;;;;;16.43;94.89;101345.63;5049821;28;20772;-84
2021/08/13 04:54:50;;;;;;;1.92;0.85;;;;;;;16.46;94.86;101339.50;5046006;28;20049;-83
2021/08/13 04:57:23;;;;;;;1.15;0.90;;;;;;;16.51;95.31;101336.66;5049973;28;20068;-84
2021/08/13 04:59:57;;;;;;;1.10;1.00;;;;;;;16.39;94.96;101306.13;5049918;28;20045;-84
2021/08/13 05:02:31;;;;;;;1.05;0.90;;;;;;;16.50;94.99;101324.03;5042627;28;20537;-88
2021/08/13 05:05:00;;;;;;;1.08;0.95;;;;;;;16.47;95.32;101317.25;5049792;28;20075;-83
2021/08/13 05:07:30;;;;;;;0.95;0.80;;;;;;;16.51;95.50;101322.13;5050104;28;20057;-84
2021/08/13 05:10:11;;;;;;;2.95;1.20;;;;;;;16.54;94.95;101325.06;5049194;28;20489;-84
2021/08/13 05:12:45;;;;;;;0.90;0.90;;;;;;;16.55;96.20;101323.94;5048863;28;20832;-83
2021/08/13 05:15:19;;;;;;;1.42;0.90;;;;;;;16.64;95.61;101327.63;5047468;28;20056;-84
2021/08/13 05:17:53;;;;;;;1.60;0.90;;;;;;;16.74;94.57;101329.34;5049094;28;20048;-84
2021/08/13 05:20:26;;;;;;;1.45;0.90;;;;;;;16.88;94.58;101334.84;5050647;28;20063;-84
2021/08/13 05:23:02;;;;;;;1.30;1.05;;;;;;;16.99;94.19;101329.97;5049054;28;20037;-84
2021/08/13 05:25:37;;;;;;;0.70;0.70;;;;;;;17.23;93.57;101345.41;5036865;28;20064;-84
2021/08/13 05:28:10;;;;;;;0.75;0.75;;;;;;;17.42;93.28;101343.31;5047083;28;20049;-85
2021/08/13 05:30:47;;;;;;;1.13;0.98;;;;;;;17.65;91.76;101344.16;5044029;28;20052;-84
2021/08/13 05:33:15;;;;;;;1.00;0.80;;;;;;;17.78;91.70;101348.00;5047226;28;20302;-84
2021/08/13 05:35:48;;;;;;;1.05;0.95;;;;;;;17.92;91.29;101347.16;5046205;28;20067;-85
2021/08/13 05:38:23;;;;;;;0.98;0.85;;;;;;;18.08;91.68;101345.63;5038475;28;20051;-84
2021/08/13 05:40:58;;;;;;;0.85;0.80;;;;;;;18.21;90.70;101340.38;5048482;28;20041;-88
2021/08/13 05:43:27;;;;;;;0.80;0.80;;;;;;;18.30;89.41;101344.00;5047312;28;20521;-86
2021/08/13 05:46:01;;;;;;;0.80;0.80;;;;;;;18.38;89.63;101343.22;5039262;28;20052;-85
2021/08/13 05:48:34;;;;;;;0.95;0.80;;;;;;;18.44;88.27;101327.34;5042009;28;20065;-86
2021/08/13 05:51:08;;;;;;;0.82;0.80;;;;;;;18.48;88.51;101331.91;5044018;28;20053;-85
2021/08/13 05:53:42;;;;;;;0.77;0.75;;;;;;;18.56;88.00;101329.50;5042844;28;20064;-85
2021/08/13 05:56:18;;;;;;;0.80;0.80;;;;;;;18.69;87.29;101347.88;5044254;28;20048;-85
2021/08/13 05:58:52;;;;;;;0.90;0.90;;;;;;;18.79;89.01;101335.75;5044503;28;20505;-85
2021/08/13 06:01:27;;;;;;;1.02;0.80;;;;;;;18.81;89.15;101345.31;5038771;28;20502;-85
2021/08/13 06:04:02;;;;;;;0.77;0.77;;;;;;;18.89;88.00;101337.44;5050406;28;20052;-85
2021/08/13 06:06:36;;;;;;;0.80;0.80;;;;;;;18.97;88.24;101334.69;5051090;28;20273;-85
2021/08/13 06:09:09;;;;;;;0.80;0.80;;;;;;;19.02;87.88;101340.06;5053334;28;20057;-86
2021/08/13 06:11:38;;;;;;;1.00;0.90;;;;;;;19.16;89.08;101339.13;5047570;28;20048;-86
2021/08/13 06:14:15;;;;;;;1.10;0.90;;;;;;;19.36;87.23;101338.50;5043610;28;20485;-85
2021/08/13 06:16:49;;;;;;;0.85;0.85;;;;;;;19.41;85.03;101334.75;5050554;28;20044;-86
2021/08/13 06:19:24;;;;;;;1.00;0.90;;;;;;;19.54;86.78;101332.94;5048800;28;20056;-86
2021/08/13 06:21:59;;;;;;;0.90;0.90;;;;;;;19.65;86.19;101326.00;5044436;28;20056;-86
2021/08/13 06:24:32;;;;;;;0.93;0.75;;;;;;;19.71;85.26;101329.38;5042317;28;20049;-85
2021/08/13 06:27:12;;;;;;;;;;;;;;;19.75;84.99;101335.06;5047987;28;20492;-86
2021/08/13 06:29:45;;;;;;;0.90;0.90;;;;;;;19.91;84.66;101327.91;5042181;28;19929;-85
2021/08/13 06:32:19;;;;;;;1.10;0.80;;;;;;;19.92;84.02;101337.03;5039190;28;20474;-85
2021/08/13 06:34:52;;;;;;;0.80;0.80;;;;;;;19.98;83.28;101325.50;5037620;28;20049;-85
2021/08/13 06:37:25;;;;;;;0.80;0.80;;;;;;;20.07;83.63;101327.41;5043774;28;20520;-85
2021/08/13 06:39:59;;;;;;;1.17;1.00;;;;;;;20.07;83.78;101325.47;5045918;28;20057;-85
2021/08/13 06:42:34;;;;;;;0.80;0.80;;;;;;;20.17;82.23;101318.75;5046575;28;20515;-85
2021/08/13 06:45:17;;;;;;;0.85;0.85;;;;;;;20.29;81.78;101320.84;5047061;28;20045;-84
2021/08/13 06:47:51;;;;;;;0.80;0.80;;;;;;;20.20;82.73;101307.03;5060453;28;20041;-85
2021/08/13 06:50:32;;;;;;;1.00;0.70;;;;;;;20.27;82.08;101314.84;5041143;28;20055;-85
2021/08/13 06:53:05;;;;;;;0.70;0.70;;;;;;;20.51;80.92;101319.78;5038336;28;20049;-84
2021/08/13 06:55:39;;;;;;;0.85;0.75;;;;;;;20.53;80.79;101326.59;5043495;28;20041;-84
2021/08/13 06:58:18;;;;;;;0.77;0.77;;;;;;;20.60;79.31;101322.50;5041740;28;20390;-84
2021/08/13 07:00:53;;;;;;;0.70;0.70;;;;;;;20.53;78.14;101318.28;5051596;28;20473;-84
2021/08/13 07:03:26;;;;;;;0.77;0.68;;;;;;;20.60;78.42;101322.50;5050119;28;20036;-84
2021/08/13 07:06:02;;;;;;;0.70;0.70;;;;;;;20.66;78.69;101318.41;5047984;28;20049;-90
2021/08/13 07:08:38;;;;;;;1.00;1.00;;;;;;;20.92;79.30;101334.06;5048758;28;20041;-85
2021/08/13 07:11:12;;;;;;;0.93;0.70;;;;;;;21.13;78.82;101323.03;5048286;28;20056;-85
2021/08/13 07:13:49;;;;;;;0.80;0.70;;;;;;;21.05;74.92;101314.47;5045817;28;20038;-86
2021/08/13 07:16:23;;;;;;;0.68;0.68;;;;;;;21.03;75.97;101305.69;5048642;28;20049;-85
2021/08/13 07:18:51;;;;;;;0.82;0.73;;;;;;;21.09;77.41;101309.06;5051536;28;20520;-84
2021/08/13 07:21:23;;;;;;;0.68;0.68;;;;;;;21.20;75.22;101313.06;5046873;28;20076;-84
2021/08/13 07:23:57;;;;;;;0.93;0.70;;;;;;;21.31;77.22;101318.16;5042312;28;20060;-85
2021/08/13 07:26:26;;;;;;;0.60;0.60;;;;;;;21.31;75.27;101310.69;5031733;28;20053;-85
2021/08/13 07:28:55;;;;;;;0.70;0.70;;;;;;;21.43;72.63;101326.53;5056239;28;20405;-85
2021/08/13 07:31:26;;;;;;;0.60;0.60;;;;;;;21.63;70.31;101333.25;5026225;28;20117;-86
2021/08/13 07:33:56;;;;;;;0.50;0.50;;;;;;;21.69;72.45;101322.78;5022022;28;20049;-85
2021/08/13 07:36:30;;;;;;;0.63;0.60;;;;;;;21.80;71.20;101320.41;5021400;28;20064;-86
2021/08/13 07:39:03;;;;;;;0.50;0.50;;;;;;;21.81;68.74;101310.94;5029870;28;20517;-85
2021/08/13 07:41:37;;;;;;;0.68;0.60;;;;;;;22.02;66.85;101324.75;5020794;28;20541;-85
2021/08/13 07:44:13;;;;;;;0.50;0.50;;;;;;;21.94;68.24;101331.19;5020451;28;20053;-84
2021/08/13 07:46:41;;;;;;;0.50;0.50;;;;;;;22.03;69.32;101349.34;5019553;28;20076;-85
2021/08/13 07:49:15;;;;;;;0.60;0.60;;;;;;;22.26;69.43;101351.69;5015637;28;20053;-85
2021/08/13 07:51:43;;;;;;;0.60;0.50;;;;;;;22.16;66.54;101339.09;5015138;28;20056;-84
2021/08/13 07:54:17;;;;;;;0.50;0.50;;;;;;;22.05;67.16;101322.09;5016922;28;20057;-85
2021/08/13 07:56:45;;;;;;;0.50;0.50;;;;;;;22.09;69.26;101336.06;5021366;28;20041;-85
2021/08/13 07:59:21;;;;;;;1.13;0.50;;;;;;;22.27;68.94;101345.00;5025832;28;20064;-85
2021/08/13 08:01:54;;;;;;;0.50;0.50;;;;;;;22.15;69.27;101340.25;5021768;28;20064;-85
2021/08/13 08:04:23;;;;;;;0.55;0.55;;;;;;;22.03;68.79;101348.53;5023881;28;20044;-85
2021/08/13 08:06:55;;;;;;;1.20;0.50;;;;;;;22.17;66.69;101345.44;5024156;28;20886;-86
2021/08/13 08:09:28;;;;;;;;;;;;;;;22.40;69.96;101345.88;5028770;28;20812;-86
2021/08/13 08:11:56;;;;;;;0.43;0.43;;;;;;;22.52;66.16;101340.31;5029277;28;19929;-86
2021/08/13 08:14:25;;;;;;;1.58;0.50;;;;;;;22.48;66.44;101342.16;5023041;28;20061;-86
2021/08/13 08:16:55;;;;;;;0.60;0.50;;;;;;;22.37;68.55;101341.84;5022906;28;20060;-86
2021/08/13 08:19:32;;;;;;;0.60;0.60;;;;;;;22.45;67.23;101339.28;5029165;28;20068;-85
2021/08/13 08:22:05;;;;;;;1.50;0.70;;;;;;;22.57;67.87;101345.66;5027280;28;20060;-84
2021/08/13 08:24:33;;;;;;;0.50;0.50;;;;;;;22.62;67.94;101346.56;5028900;28;20056;-88
2021/08/13 08:27:07;;;;;;;0.73;0.40;;;;;;;22.78;66.86;101347.50;5040415;28;20053;-86
2021/08/13 08:29:41;;;;;;;0.50;0.50;;;;;;;22.75;68.47;101334.31;5027926;28;20057;-85
2021/08/13 08:32:15;;;;;;;0.50;0.50;;;;;;;22.85;67.10;101328.28;5031589;28;20056;-83
2021/08/13 08:34:43;;;;;;;0.50;0.50;;;;;;;22.90;65.97;101347.50;5025070;28;20052;-84
2021/08/13 08:37:11;;;;;;;0.50;0.50;;;;;;;22.89;65.54;101342.28;5024985;28;20064;-84
2021/08/13 08:39:47;;;;;;;1.10;0.50;;;;;;;22.87;67.78;101341.81;5026083;28;20052;-84
2021/08/13 08:42:46;;;;;;;0.55;0.40;;;;;;;22.86;63.97;101334.69;5025311;28;20064;-85
2021/08/13 08:45:20;;;;;;;0.50;0.45;;;;;;;23.04;66.93;101338.81;5025974;28;20061;-85
2021/08/13 08:47:49;;;;;;;0.47;0.47;;;;;;;22.83;67.72;101332.56;5025066;28;21485;-85
2021/08/13 08:50:22;;;;;;;0.50;0.40;;;;;;;22.89;63.40;101340.31;5025896;28;20456;-84
2021/08/13 08:52:58;;;;;;;1.15;0.50;;;;;;;23.10;63.77;101336.59;5023370;28;20047;-85
2021/08/13 08:55:32;;;;;;;1.45;0.40;;;;;;;23.22;67.39;101335.81;5028606;28;20595;-84
2021/08/13 08:58:08;;;;;;;0.52;0.50;;;;;;;23.32;66.33;101335.31;5029251;28;21435;-84
2021/08/13 09:00:44;;;;;;;0.95;0.50;;;;;;;23.30;64.55;101328.47;5021423;28;20068;-84
2021/08/13 09:03:19;;;;;;;0.82;0.60;;;;;;;23.10;61.85;101340.19;5028328;28;20681;-84
2021/08/13 09:05:55;;;;;;;0.50;0.50;;;;;;;23.03;63.84;101314.19;5021367;28;20057;-90
2021/08/13 09:08:24;;;;;;;0.50;0.50;;;;;;;23.20;66.89;101310.34;5020712;28;20059;-85
2021/08/13 09:11:00;;;;;;;0.77;0.47;;;;;;;23.74;66.36;101325.81;5032914;28;20042;-84
2021/08/13 09:13:35;;;;;;;1.07;0.60;;;;;;;23.60;65.52;101321.44;5029001;28;20057;-84
2021/08/13 09:16:39;;;;;;;0.82;0.50;;;;;;;23.58;64.87;101326.53;5032976;28;20599;-86
2021/08/13 09:19:09;;;;;;;0.50;0.50;;;;;;;23.60;65.72;101328.97;5035520;28;20057;-83
2021/08/13 09:21:38;;;;;;;0.55;0.40;;;;;;;23.59;61.02;101319.81;5021516;28;20053;-83
2021/08/13 09:24:13;;;;;;;0.50;0.50;;;;;;;23.57;64.57;101322.16;5028118;28;20053;-84
2021/08/13 09:26:43;;;;;;;1.08;0.52;;;;;;;23.76;61.84;101323.47;5017952;28;20064;-84
2021/08/13 09:29:19;;;;;;;1.17;0.60;;;;;;;23.73;61.14;101319.41;5029886;28;20053;-84
2021/08/13 09:32:26;;;;;;;0.60;0.60;;;;;;;23.72;63.73;101317.00;5021682;28;21576;-84
2021/08/13 09:35:00;;;;;;;0.50;0.50;;;;;;;23.74;61.79;101314.69;5018997;28;20053;-84
2021/08/13 09:37:34;;;;;;;0.47;0.47;;;;;;;23.78;67.86;101308.06;5025154;28;20887;-84
2021/08/13 09:40:03;;;;;;;0.50;0.50;;;;;;;23.85;66.02;101301.88;5039260;28;20061;-85
2021/08/13 09:42:38;;;;;;;0.63;0.50;;;;;;;23.85;64.42;101301.06;5022630;28;20061;-84
2021/08/13 09:45:08;;;;;;;0.60;0.60;;;;;;;24.03;62.50;101304.34;5028628;28;20409;-85
2021/08/13 09:47:43;;;;;;;0.50;0.40;;;;;;;23.96;62.98;101306.94;5024856;28;20050;-85
2021/08/13 09:50:20;;;;;;;0.40;0.40;;;;;;;24.03;63.75;101309.91;5023460;28;20548;-84
2021/08/13 09:53:10;;;;;;;0.45;0.45;;;;;;;23.90;64.71;101318.31;5023889;28;20060;-85
2021/08/13 09:55:44;;;;;;;0.47;0.43;;;;;;;23.92;61.49;101317.97;5033570;28;20049;-84
2021/08/13 09:58:25;;;;;;;0.55;0.50;;;;;;;23.81;62.52;101323.22;5024328;28;20058;-83
2021/08/13 10:00:55;;;;;;;0.43;0.43;;;;;;;23.98;63.54;101321.31;5022151;28;20057;-84
2021/08/13 10:03:25;;;;;;;0.40;0.40;;;;;;;24.10;61.45;101327.59;5028284;28;20119;-85
2021/08/13 10:06:03;;;;;;;0.57;0.57;;;;;;;23.97;60.82;101323.25;5023909;28;20056;-84
2021/08/13 10:08:45;;;;;;;0.40;0.40;;;;;;;24.31;59.89;101326.53;5021363;28;20058;-84
2021/08/13 10:11:16;;;;;;;0.40;0.40;;;;;;;24.02;57.79;101325.78;5019610;28;20045;-85
2021/08/13 10:13:54;;;;;;;0.32;0.32;;;;;;;24.16;58.27;101317.00;5023054;28;20049;-84
2021/08/13 10:16:29;;;;;;;0.40;0.40;;;;;;;24.23;60.07;101322.75;5027526;28;20053;-84
2021/08/13 10:19:16;;;;;;;0.50;0.50;;;;;;;24.30;59.40;101312.97;5026556;28;20065;-84
2021/08/13 10:21:50;;;;;;;0.40;0.40;;;;;;;24.35;58.31;101307.16;5020165;28;20266;-84
2021/08/13 10:24:23;;;;;;;0.63;0.40;;;;;;;24.54;58.96;101317.53;5025787;28;20049;-85
2021/08/13 10:26:57;;;;;;;0.50;0.50;;;;;;;24.51;61.28;101312.69;5018791;28;20406;-85
2021/08/13 10:29:32;;;;;;;0.40;0.40;;;;;;;24.63;61.13;101317.41;5024121;28;20052;-86
2021/08/13 10:32:06;;;;;;;0.40;0.40;;;;;;;24.76;57.49;101313.31;5024156;28;20803;-85
2021/08/13 10:34:36;;;;;;;0.60;0.50;;;;;;;24.77;64.83;101309.38;5022150;28;20064;-84
2021/08/13 10:37:13;;;;;;;0.40;0.40;;;;;;;24.68;59.91;101309.59;5020185;28;20061;-86
2021/08/13 10:39:47;;;;;;;0.40;0.40;;;;;;;24.59;62.81;101301.38;5018694;28;20053;-85
2021/08/13 10:42:23;;;;;;;0.50;0.43;;;;;;;24.58;60.94;101299.78;5021453;28;20053;-85
2021/08/13 10:44:59;;;;;;;0.40;0.40;;;;;;;24.69;61.23;101313.97;5018050;28;21892;-86
2021/08/13 10:47:37;;;;;;;0.40;0.40;;;;;;;24.90;59.93;101308.09;5018986;28;20068;-85
2021/08/13 10:50:16;;;;;;;0.40;0.40;;;;;;;24.93;56.96;101303.78;5019287;28;20053;-85
2021/08/13 10:52:44;;;;;;;0.50;0.50;;;;;;;24.73;57.31;101297.34;5022402;28;20067;-84
2021/08/13 10:55:54;;;;;;;0.40;0.40;;;;;;;24.78;57.92;101303.44;5026052;28;20053;-84
2021/08/13 10:58:45;;;;;;;0.40;0.40;;;;;;;24.92;59.31;101300.19;5019841;28;20057;-85
2021/08/13 11:01:23;;;;;;;0.40;0.40;;;;;;;24.96;58.94;101286.34;5022676;28;20049;-86
2021/08/13 11:04:13;;;;;;;1.65;0.45;;;;;;;24.88;58.54;101270.66;5021975;28;20060;-85
2021/08/13 11:06:49;;;;;;;0.40;0.40;;;;;;;24.92;57.86;101286.25;5018160;28;20060;-86
2021/08/13 11:09:35;;;;;;;0.80;0.50;;;;;;;24.92;59.79;101280.69;5020149;28;20072;-86
2021/08/13 11:12:13;;;;;;;0.40;0.40;;;;;;;24.64;62.20;101291.16;5018325;28;20053;-85
2021/08/13 11:14:52;;;;;;;0.40;0.40;;;;;;;24.70;58.72;101287.75;5026264;28;20057;-85
2021/08/13 11:17:38;;;;;;;0.52;0.50;;;;;;;24.83;57.66;101282.06;5020427;28;20056;-84
2021/08/13 11:20:15;;;;;;;0.40;0.40;;;;;;;25.23;57.56;101280.94;5020951;28;20066;-85
2021/08/13 11:23:04;;;;;;;0.40;0.40;;;;;;;25.34;56.07;101275.63;5017732;28;20053;-85
2021/08/13 11:25:48;;;;;;;0.30;0.30;;;;;;;25.52;57.37;101260.06;5017131;28;20045;-85
2021/08/13 11:28:25;;;;;;;;;;;;;;;25.54;55.64;101266.06;5018134;28;20053;-86
2021/08/13 11:31:03;;;;;;;0.40;0.40;;;;;;;25.65;57.56;101266.28;5019969;28;19945;-85
2021/08/13 11:33:41;;;;;;;0.40;0.40;;;;;;;25.25;58.13;101259.09;5024201;28;20049;-85
2021/08/13 11:36:54;;;;;;;0.40;0.40;;;;;;;25.26;56.50;101258.75;5030591;28;20060;-85
2021/08/13 11:39:41;;;;;;;0.38;0.38;;;;;;;25.60;56.97;101259.03;5022968;28;20060;-85
2021/08/13 11:42:11;;;;;;;0.40;0.40;;;;;;;25.40;58.36;101254.66;5018079;28;20076;-85
2021/08/13 11:44:49;;;;;;;0.40;0.40;;;;;;;25.47;56.68;101257.59;5017703;28;20057;-85
2021/08/13 11:47:18;;;;;;;0.45;0.40;;;;;;;25.57;54.92;101259.75;5018932;28;20056;-86
2021/08/13 11:49:48;;;;;;;0.40;0.40;;;;;;;25.54;56.83;101252.13;5025830;28;20421;-85
2021/08/13 11:52:23;;;;;;;0.68;0.40;;;;;;;25.55;54.65;101250.16;5017376;28;20437;-86
2021/08/13 11:54:57;;;;;;;0.47;0.47;;;;;;;25.32;59.23;101255.66;5024505;28;20046;-85
2021/08/13 11:57:25;;;;;;;0.30;0.30;;;;;;;25.26;58.15;101267.09;5018564;28;20045;-85
2021/08/13 11:59:54;;;;;;;0.47;0.40;;;;;;;25.20;59.87;101267.75;5024613;28;20057;-85
2021/08/13 12:02:30;;;;;;;0.40;0.40;;;;;;;25.40;55.14;101266.59;5016836;28;20060;-85
2021/08/13 12:05:04;;;;;;;0.55;0.55;;;;;;;25.46;56.47;101258.75;5017625;28;20064;-87